sensor_id;sensor_type;location;lat;lon;timestamp;P1;durP1;ratioP1;P2;durP2;ratioP2
74309;SDS011;62722;51.142;17.052;2022-12-17T00:00:58;84.63;;;31.77;;
74309;SDS011;62722;51.142;17.052;2022-12-17T00:03:44;77.93;;;32.10;;
74309;SDS011;62722;51.142;17.052;2022-12-17T00:06:29;84.25;;;28.67;;
74309;SDS011;62722;51.142;17.052;2022-12-17T00:09:18;97.80;;;32.78;;
74309;SDS011;62722;51.142;17.052;2022-12-17T00:12:04;62.47;;;23.20;;
74309;SDS011;62722;51.142;17.052;2022-12-17T00:14:49;101.10;;;32.45;;
74309;SDS011;62722;51.142;17.052;2022-12-17T00:17:46;89.97;;;31.08;;
74309;SDS011;62722;51.142;17.052;2022-12-17T00:20:36;79.43;;;28.85;;
74309;SDS011;62722;51.142;17.052;2022-12-17T00:23:21;86.68;;;30.00;;
74309;SDS011;62722;51.142;17.052;2022-12-17T00:26:07;80.00;;;30.30;;
74309;SDS011;62722;51.142;17.052;2022-12-17T00:28:58;82.10;;;30.15;;
74309;SDS011;62722;51.142;17.052;2022-12-17T00:31:43;83.65;;;30.50;;
74309;SDS011;62722;51.142;17.052;2022-12-17T00:34:28;96.97;;;33.20;;
74309;SDS011;62722;51.142;17.052;2022-12-17T00:37:13;71.32;;;25.20;;
74309;SDS011;62722;51.142;17.052;2022-12-17T00:39:57;60.90;;;22.70;;
74309;SDS011;62722;51.142;17.052;2022-12-17T00:42:42;94.10;;;33.08;;
74309;SDS011;62722;51.142;17.052;2022-12-17T00:45:27;75.10;;;26.23;;
74309;SDS011;62722;51.142;17.052;2022-12-17T00:48:13;89.25;;;30.83;;
74309;SDS011;62722;51.142;17.052;2022-12-17T00:50:57;89.07;;;31.13;;
74309;SDS011;62722;51.142;17.052;2022-12-17T00:53:42;84.60;;;32.40;;
74309;SDS011;62722;51.142;17.052;2022-12-17T00:56:26;88.13;;;31.23;;
74309;SDS011;62722;51.142;17.052;2022-12-17T00:59:11;89.75;;;34.33;;
74309;SDS011;62722;51.142;17.052;2022-12-17T01:01:57;88.57;;;30.85;;
74309;SDS011;62722;51.142;17.052;2022-12-17T01:04:42;97.70;;;32.55;;
74309;SDS011;62722;51.142;17.052;2022-12-17T01:07:27;82.22;;;30.83;;
74309;SDS011;62722;51.142;17.052;2022-12-17T01:10:11;79.88;;;29.65;;
74309;SDS011;62722;51.142;17.052;2022-12-17T01:12:56;83.55;;;29.38;;
74309;SDS011;62722;51.142;17.052;2022-12-17T01:15:41;87.35;;;30.08;;
74309;SDS011;62722;51.142;17.052;2022-12-17T01:18:27;90.70;;;29.23;;
74309;SDS011;62722;51.142;17.052;2022-12-17T01:21:12;78.85;;;30.10;;
74309;SDS011;62722;51.142;17.052;2022-12-17T01:23:57;87.55;;;29.10;;
74309;SDS011;62722;51.142;17.052;2022-12-17T01:26:41;67.07;;;26.63;;
74309;SDS011;62722;51.142;17.052;2022-12-17T01:29:26;90.38;;;28.90;;
74309;SDS011;62722;51.142;17.052;2022-12-17T01:32:11;72.68;;;28.35;;
74309;SDS011;62722;51.142;17.052;2022-12-17T01:34:57;85.47;;;30.42;;
74309;SDS011;62722;51.142;17.052;2022-12-17T01:37:42;79.18;;;27.25;;
74309;SDS011;62722;51.142;17.052;2022-12-17T01:43:12;83.97;;;27.65;;
74309;SDS011;62722;51.142;17.052;2022-12-17T01:45:57;85.30;;;29.35;;
74309;SDS011;62722;51.142;17.052;2022-12-17T01:48:43;79.65;;;28.55;;
74309;SDS011;62722;51.142;17.052;2022-12-17T01:51:32;88.15;;;30.27;;
74309;SDS011;62722;51.142;17.052;2022-12-17T01:54:18;85.93;;;28.95;;
74309;SDS011;62722;51.142;17.052;2022-12-17T01:57:03;94.13;;;31.80;;
74309;SDS011;62722;51.142;17.052;2022-12-17T01:59:51;88.65;;;31.50;;
74309;SDS011;62722;51.142;17.052;2022-12-17T02:02:41;88.60;;;32.47;;
74309;SDS011;62722;51.142;17.052;2022-12-17T02:08:30;84.55;;;28.98;;
74309;SDS011;62722;51.142;17.052;2022-12-17T02:11:25;91.95;;;31.92;;
74309;SDS011;62722;51.142;17.052;2022-12-17T02:14:15;94.03;;;32.67;;
74309;SDS011;62722;51.142;17.052;2022-12-17T02:19:56;79.97;;;29.80;;
74309;SDS011;62722;51.142;17.052;2022-12-17T02:22:53;84.90;;;29.90;;
74309;SDS011;62722;51.142;17.052;2022-12-17T02:25:48;93.22;;;30.63;;
74309;SDS011;62722;51.142;17.052;2022-12-17T02:28:38;95.90;;;32.45;;
74309;SDS011;62722;51.142;17.052;2022-12-17T02:31:26;86.28;;;33.25;;
74309;SDS011;62722;51.142;17.052;2022-12-17T02:34:14;95.88;;;30.83;;
74309;SDS011;62722;51.142;17.052;2022-12-17T02:37:07;90.22;;;30.65;;
74309;SDS011;62722;51.142;17.052;2022-12-17T02:39:52;96.70;;;34.00;;
74309;SDS011;62722;51.142;17.052;2022-12-17T02:42:37;86.22;;;30.85;;
74309;SDS011;62722;51.142;17.052;2022-12-17T02:45:23;96.20;;;32.28;;
74309;SDS011;62722;51.142;17.052;2022-12-17T02:53:40;81.57;;;26.08;;
74309;SDS011;62722;51.142;17.052;2022-12-17T02:56:27;88.18;;;31.90;;
74309;SDS011;62722;51.142;17.052;2022-12-17T02:59:12;93.85;;;31.77;;
74309;SDS011;62722;51.142;17.052;2022-12-17T03:01:58;91.03;;;29.92;;
74309;SDS011;62722;51.142;17.052;2022-12-17T03:04:43;94.63;;;30.88;;
74309;SDS011;62722;51.142;17.052;2022-12-17T03:07:27;87.70;;;29.83;;
74309;SDS011;62722;51.142;17.052;2022-12-17T03:10:12;100.38;;;31.60;;
74309;SDS011;62722;51.142;17.052;2022-12-17T03:12:56;95.38;;;31.30;;
74309;SDS011;62722;51.142;17.052;2022-12-17T03:15:41;89.28;;;31.13;;
74309;SDS011;62722;51.142;17.052;2022-12-17T03:18:27;81.60;;;28.45;;
74309;SDS011;62722;51.142;17.052;2022-12-17T03:21:26;86.25;;;29.52;;
74309;SDS011;62722;51.142;17.052;2022-12-17T03:24:11;99.38;;;32.13;;
74309;SDS011;62722;51.142;17.052;2022-12-17T03:26:56;93.28;;;31.17;;
74309;SDS011;62722;51.142;17.052;2022-12-17T03:29:40;81.53;;;30.00;;
74309;SDS011;62722;51.142;17.052;2022-12-17T03:32:25;87.78;;;31.17;;
74309;SDS011;62722;51.142;17.052;2022-12-17T03:35:11;90.32;;;31.42;;
74309;SDS011;62722;51.142;17.052;2022-12-17T03:37:56;100.55;;;32.25;;
74309;SDS011;62722;51.142;17.052;2022-12-17T03:40:40;98.85;;;30.58;;
74309;SDS011;62722;51.142;17.052;2022-12-17T03:43:25;90.07;;;30.10;;
74309;SDS011;62722;51.142;17.052;2022-12-17T03:46:09;91.90;;;30.85;;
74309;SDS011;62722;51.142;17.052;2022-12-17T03:48:54;97.30;;;31.35;;
74309;SDS011;62722;51.142;17.052;2022-12-17T03:51:40;85.93;;;29.60;;
74309;SDS011;62722;51.142;17.052;2022-12-17T03:54:24;81.85;;;29.05;;
74309;SDS011;62722;51.142;17.052;2022-12-17T03:57:09;86.75;;;27.98;;
74309;SDS011;62722;51.142;17.052;2022-12-17T03:59:54;82.25;;;28.35;;
74309;SDS011;62722;51.142;17.052;2022-12-17T04:02:38;87.93;;;30.52;;
74309;SDS011;62722;51.142;17.052;2022-12-17T04:05:23;86.93;;;28.92;;
74309;SDS011;62722;51.142;17.052;2022-12-17T04:08:18;90.88;;;28.52;;
74309;SDS011;62722;51.142;17.052;2022-12-17T04:11:03;84.13;;;27.27;;
74309;SDS011;62722;51.142;17.052;2022-12-17T04:13:48;78.63;;;24.95;;
74309;SDS011;62722;51.142;17.052;2022-12-17T04:16:37;93.22;;;29.42;;
74309;SDS011;62722;51.142;17.052;2022-12-17T04:19:22;89.00;;;28.77;;
74309;SDS011;62722;51.142;17.052;2022-12-17T04:22:07;89.15;;;28.45;;
74309;SDS011;62722;51.142;17.052;2022-12-17T04:24:53;89.47;;;29.67;;
74309;SDS011;62722;51.142;17.052;2022-12-17T04:27:38;89.72;;;30.25;;
74309;SDS011;62722;51.142;17.052;2022-12-17T04:30:22;90.10;;;29.80;;
74309;SDS011;62722;51.142;17.052;2022-12-17T04:33:07;93.53;;;28.85;;
74309;SDS011;62722;51.142;17.052;2022-12-17T04:35:51;84.68;;;28.90;;
74309;SDS011;62722;51.142;17.052;2022-12-17T04:38:36;88.32;;;29.27;;
74309;SDS011;62722;51.142;17.052;2022-12-17T04:41:22;83.82;;;29.15;;
74309;SDS011;62722;51.142;17.052;2022-12-17T04:44:07;85.80;;;26.95;;
74309;SDS011;62722;51.142;17.052;2022-12-17T04:46:51;87.07;;;28.15;;
74309;SDS011;62722;51.142;17.052;2022-12-17T04:49:36;80.35;;;29.13;;
74309;SDS011;62722;51.142;17.052;2022-12-17T04:52:21;92.03;;;30.92;;
74309;SDS011;62722;51.142;17.052;2022-12-17T04:55:05;83.97;;;27.23;;
74309;SDS011;62722;51.142;17.052;2022-12-17T04:57:52;85.65;;;26.67;;
74309;SDS011;62722;51.142;17.052;2022-12-17T05:00:36;81.55;;;25.23;;
74309;SDS011;62722;51.142;17.052;2022-12-17T05:03:21;87.60;;;27.70;;
74309;SDS011;62722;51.142;17.052;2022-12-17T05:06:05;88.20;;;29.55;;
74309;SDS011;62722;51.142;17.052;2022-12-17T05:08:50;85.03;;;26.67;;
74309;SDS011;62722;51.142;17.052;2022-12-17T05:11:34;86.07;;;27.17;;
74309;SDS011;62722;51.142;17.052;2022-12-17T05:14:20;83.05;;;26.67;;
74309;SDS011;62722;51.142;17.052;2022-12-17T05:17:05;79.90;;;27.48;;
74309;SDS011;62722;51.142;17.052;2022-12-17T05:19:50;94.07;;;28.48;;
74309;SDS011;62722;51.142;17.052;2022-12-17T05:22:34;81.78;;;26.20;;
74309;SDS011;62722;51.142;17.052;2022-12-17T05:25:19;85.35;;;27.60;;
74309;SDS011;62722;51.142;17.052;2022-12-17T05:28:04;85.97;;;26.23;;
74309;SDS011;62722;51.142;17.052;2022-12-17T05:30:51;81.88;;;26.23;;
74309;SDS011;62722;51.142;17.052;2022-12-17T05:33:37;87.05;;;27.33;;
74309;SDS011;62722;51.142;17.052;2022-12-17T05:36:21;87.75;;;27.67;;
74309;SDS011;62722;51.142;17.052;2022-12-17T05:39:06;76.85;;;24.00;;
74309;SDS011;62722;51.142;17.052;2022-12-17T05:41:51;85.35;;;27.30;;
74309;SDS011;62722;51.142;17.052;2022-12-17T05:44:35;74.75;;;25.67;;
74309;SDS011;62722;51.142;17.052;2022-12-17T05:47:21;73.85;;;24.90;;
74309;SDS011;62722;51.142;17.052;2022-12-17T05:50:06;77.68;;;24.30;;
74309;SDS011;62722;51.142;17.052;2022-12-17T05:52:51;71.50;;;24.15;;
74309;SDS011;62722;51.142;17.052;2022-12-17T05:55:35;83.07;;;27.55;;
74309;SDS011;62722;51.142;17.052;2022-12-17T05:58:20;84.38;;;25.27;;
74309;SDS011;62722;51.142;17.052;2022-12-17T06:01:05;59.00;;;20.48;;
74309;SDS011;62722;51.142;17.052;2022-12-17T06:03:51;71.82;;;26.50;;
74309;SDS011;62722;51.142;17.052;2022-12-17T06:06:36;71.70;;;25.50;;
74309;SDS011;62722;51.142;17.052;2022-12-17T06:09:20;81.45;;;23.85;;
74309;SDS011;62722;51.142;17.052;2022-12-17T06:12:05;86.20;;;27.50;;
74309;SDS011;62722;51.142;17.052;2022-12-17T06:14:50;83.07;;;26.33;;
74309;SDS011;62722;51.142;17.052;2022-12-17T06:17:34;71.25;;;25.55;;
74309;SDS011;62722;51.142;17.052;2022-12-17T06:20:20;87.15;;;24.90;;
74309;SDS011;62722;51.142;17.052;2022-12-17T06:23:05;76.85;;;24.20;;
74309;SDS011;62722;51.142;17.052;2022-12-17T06:25:53;75.65;;;24.00;;
74309;SDS011;62722;51.142;17.052;2022-12-17T06:28:38;77.20;;;24.42;;
74309;SDS011;62722;51.142;17.052;2022-12-17T06:31:23;86.20;;;25.40;;
74309;SDS011;62722;51.142;17.052;2022-12-17T06:34:08;73.30;;;24.52;;
74309;SDS011;62722;51.142;17.052;2022-12-17T06:36:54;81.68;;;24.30;;
74309;SDS011;62722;51.142;17.052;2022-12-17T06:39:38;79.43;;;25.08;;
74309;SDS011;62722;51.142;17.052;2022-12-17T06:42:23;81.15;;;23.27;;
74309;SDS011;62722;51.142;17.052;2022-12-17T06:45:08;79.28;;;25.75;;
74309;SDS011;62722;51.142;17.052;2022-12-17T06:47:59;74.78;;;23.52;;
74309;SDS011;62722;51.142;17.052;2022-12-17T06:50:44;72.18;;;25.08;;
74309;SDS011;62722;51.142;17.052;2022-12-17T06:53:30;68.80;;;24.13;;
74309;SDS011;62722;51.142;17.052;2022-12-17T06:56:15;71.50;;;22.63;;
74309;SDS011;62722;51.142;17.052;2022-12-17T06:59:00;73.30;;;23.80;;
74309;SDS011;62722;51.142;17.052;2022-12-17T07:01:44;74.93;;;22.50;;
74309;SDS011;62722;51.142;17.052;2022-12-17T07:04:29;77.30;;;23.88;;
74309;SDS011;62722;51.142;17.052;2022-12-17T07:07:14;73.95;;;23.98;;
74309;SDS011;62722;51.142;17.052;2022-12-17T07:10:02;73.47;;;23.08;;
74309;SDS011;62722;51.142;17.052;2022-12-17T07:12:47;71.78;;;27.20;;
74309;SDS011;62722;51.142;17.052;2022-12-17T07:15:32;76.95;;;25.70;;
74309;SDS011;62722;51.142;17.052;2022-12-17T07:18:16;67.60;;;22.35;;
74309;SDS011;62722;51.142;17.052;2022-12-17T07:21:01;68.88;;;22.23;;
74309;SDS011;62722;51.142;17.052;2022-12-17T07:23:47;69.53;;;22.50;;
74309;SDS011;62722;51.142;17.052;2022-12-17T07:26:33;76.65;;;23.88;;
74309;SDS011;62722;51.142;17.052;2022-12-17T07:29:18;71.97;;;22.95;;
74309;SDS011;62722;51.142;17.052;2022-12-17T07:32:14;80.50;;;24.42;;
74309;SDS011;62722;51.142;17.052;2022-12-17T07:34:58;78.63;;;24.67;;
74309;SDS011;62722;51.142;17.052;2022-12-17T07:37:43;78.28;;;23.98;;
74309;SDS011;62722;51.142;17.052;2022-12-17T07:40:28;64.60;;;22.23;;
74309;SDS011;62722;51.142;17.052;2022-12-17T07:43:14;67.63;;;23.02;;
74309;SDS011;62722;51.142;17.052;2022-12-17T07:45:59;67.70;;;22.77;;
74309;SDS011;62722;51.142;17.052;2022-12-17T07:48:43;72.47;;;24.23;;
74309;SDS011;62722;51.142;17.052;2022-12-17T07:51:34;68.63;;;21.88;;
74309;SDS011;62722;51.142;17.052;2022-12-17T07:54:19;57.50;;;20.10;;
74309;SDS011;62722;51.142;17.052;2022-12-17T07:57:06;71.15;;;22.67;;
74309;SDS011;62722;51.142;17.052;2022-12-17T07:59:52;66.90;;;20.00;;
74309;SDS011;62722;51.142;17.052;2022-12-17T08:02:36;66.68;;;20.73;;
74309;SDS011;62722;51.142;17.052;2022-12-17T08:05:21;61.55;;;18.98;;
74309;SDS011;62722;51.142;17.052;2022-12-17T08:08:06;67.05;;;20.77;;
74309;SDS011;62722;51.142;17.052;2022-12-17T08:10:51;62.80;;;19.73;;
74309;SDS011;62722;51.142;17.052;2022-12-17T08:13:41;64.93;;;23.10;;
74309;SDS011;62722;51.142;17.052;2022-12-17T08:16:33;63.67;;;19.10;;
74309;SDS011;62722;51.142;17.052;2022-12-17T08:19:17;78.57;;;21.55;;
74309;SDS011;62722;51.142;17.052;2022-12-17T08:22:02;58.03;;;19.42;;
74309;SDS011;62722;51.142;17.052;2022-12-17T08:24:46;55.75;;;16.90;;
74309;SDS011;62722;51.142;17.052;2022-12-17T08:27:31;49.42;;;17.50;;
74309;SDS011;62722;51.142;17.052;2022-12-17T08:30:15;53.35;;;16.13;;
74309;SDS011;62722;51.142;17.052;2022-12-17T08:33:02;56.05;;;17.92;;
74309;SDS011;62722;51.142;17.052;2022-12-17T08:35:50;49.20;;;16.20;;
74309;SDS011;62722;51.142;17.052;2022-12-17T08:38:35;55.75;;;18.30;;
74309;SDS011;62722;51.142;17.052;2022-12-17T08:41:20;48.75;;;16.48;;
74309;SDS011;62722;51.142;17.052;2022-12-17T08:44:04;53.75;;;18.10;;
74309;SDS011;62722;51.142;17.052;2022-12-17T08:46:49;60.72;;;17.75;;
74309;SDS011;62722;51.142;17.052;2022-12-17T08:49:35;62.17;;;19.50;;
74309;SDS011;62722;51.142;17.052;2022-12-17T08:52:20;62.97;;;19.30;;
74309;SDS011;62722;51.142;17.052;2022-12-17T08:55:05;47.47;;;15.93;;
74309;SDS011;62722;51.142;17.052;2022-12-17T08:57:51;50.78;;;17.52;;
74309;SDS011;62722;51.142;17.052;2022-12-17T09:00:36;51.50;;;15.85;;
74309;SDS011;62722;51.142;17.052;2022-12-17T09:03:21;68.20;;;20.60;;
74309;SDS011;62722;51.142;17.052;2022-12-17T09:06:07;50.58;;;18.20;;
74309;SDS011;62722;51.142;17.052;2022-12-17T09:08:52;54.78;;;18.73;;
74309;SDS011;62722;51.142;17.052;2022-12-17T09:11:36;66.93;;;20.55;;
74309;SDS011;62722;51.142;17.052;2022-12-17T09:14:21;44.10;;;16.15;;
74309;SDS011;62722;51.142;17.052;2022-12-17T09:17:06;51.83;;;16.40;;
74309;SDS011;62722;51.142;17.052;2022-12-17T09:19:50;50.42;;;17.98;;
74309;SDS011;62722;51.142;17.052;2022-12-17T09:22:36;45.67;;;14.32;;
74309;SDS011;62722;51.142;17.052;2022-12-17T09:25:20;50.25;;;15.95;;
74309;SDS011;62722;51.142;17.052;2022-12-17T09:28:05;48.65;;;15.70;;
74309;SDS011;62722;51.142;17.052;2022-12-17T09:30:50;59.50;;;17.45;;
74309;SDS011;62722;51.142;17.052;2022-12-17T09:33:35;49.17;;;16.08;;
74309;SDS011;62722;51.142;17.052;2022-12-17T09:36:20;58.28;;;16.83;;
74309;SDS011;62722;51.142;17.052;2022-12-17T09:39:06;45.85;;;14.80;;
74309;SDS011;62722;51.142;17.052;2022-12-17T09:41:52;49.78;;;14.63;;
74309;SDS011;62722;51.142;17.052;2022-12-17T09:44:46;38.53;;;15.02;;
74309;SDS011;62722;51.142;17.052;2022-12-17T09:47:37;42.10;;;14.38;;
74309;SDS011;62722;51.142;17.052;2022-12-17T09:50:28;39.65;;;14.77;;
74309;SDS011;62722;51.142;17.052;2022-12-17T09:53:16;49.72;;;16.20;;
74309;SDS011;62722;51.142;17.052;2022-12-17T09:56:06;44.58;;;15.27;;
74309;SDS011;62722;51.142;17.052;2022-12-17T09:58:54;44.58;;;14.20;;
74309;SDS011;62722;51.142;17.052;2022-12-17T10:01:39;50.63;;;17.65;;
74309;SDS011;62722;51.142;17.052;2022-12-17T10:04:26;43.50;;;15.02;;
74309;SDS011;62722;51.142;17.052;2022-12-17T10:07:17;52.10;;;16.35;;
74309;SDS011;62722;51.142;17.052;2022-12-17T10:10:14;53.50;;;16.15;;
74309;SDS011;62722;51.142;17.052;2022-12-17T10:13:06;44.53;;;14.68;;
74309;SDS011;62722;51.142;17.052;2022-12-17T10:15:53;55.40;;;15.65;;
74309;SDS011;62722;51.142;17.052;2022-12-17T10:18:39;47.10;;;15.55;;
74309;SDS011;62722;51.142;17.052;2022-12-17T10:24:12;46.00;;;15.90;;
74309;SDS011;62722;51.142;17.052;2022-12-17T10:26:56;62.65;;;18.48;;
74309;SDS011;62722;51.142;17.052;2022-12-17T10:29:40;51.78;;;15.70;;
74309;SDS011;62722;51.142;17.052;2022-12-17T10:32:27;57.58;;;18.35;;
74309;SDS011;62722;51.142;17.052;2022-12-17T10:35:15;50.22;;;15.30;;
74309;SDS011;62722;51.142;17.052;2022-12-17T10:38:08;56.35;;;18.50;;
74309;SDS011;62722;51.142;17.052;2022-12-17T10:40:54;55.10;;;17.25;;
74309;SDS011;62722;51.142;17.052;2022-12-17T10:43:38;58.30;;;16.35;;
74309;SDS011;62722;51.142;17.052;2022-12-17T10:49:11;57.45;;;16.80;;
74309;SDS011;62722;51.142;17.052;2022-12-17T10:52:02;42.67;;;15.25;;
74309;SDS011;62722;51.142;17.052;2022-12-17T10:54:56;59.17;;;18.33;;
74309;SDS011;62722;51.142;17.052;2022-12-17T10:57:44;59.55;;;16.98;;
74309;SDS011;62722;51.142;17.052;2022-12-17T11:00:30;51.63;;;16.85;;
74309;SDS011;62722;51.142;17.052;2022-12-17T11:03:24;58.17;;;19.27;;
74309;SDS011;62722;51.142;17.052;2022-12-17T11:06:22;46.00;;;15.65;;
74309;SDS011;62722;51.142;17.052;2022-12-17T11:09:21;50.67;;;16.42;;
74309;SDS011;62722;51.142;17.052;2022-12-17T11:12:15;62.92;;;18.70;;
74309;SDS011;62722;51.142;17.052;2022-12-17T11:15:06;54.92;;;16.20;;
74309;SDS011;62722;51.142;17.052;2022-12-17T11:17:58;52.50;;;17.92;;
74309;SDS011;62722;51.142;17.052;2022-12-17T11:20:48;58.00;;;19.23;;
74309;SDS011;62722;51.142;17.052;2022-12-17T11:23:38;61.28;;;18.38;;
74309;SDS011;62722;51.142;17.052;2022-12-17T11:26:33;50.97;;;19.23;;
74309;SDS011;62722;51.142;17.052;2022-12-17T11:29:19;55.80;;;16.25;;
74309;SDS011;62722;51.142;17.052;2022-12-17T11:32:12;53.97;;;16.42;;
74309;SDS011;62722;51.142;17.052;2022-12-17T11:35:16;61.45;;;18.48;;
74309;SDS011;62722;51.142;17.052;2022-12-17T11:38:11;58.35;;;17.67;;
74309;SDS011;62722;51.142;17.052;2022-12-17T11:41:07;53.95;;;17.40;;
74309;SDS011;62722;51.142;17.052;2022-12-17T11:44:00;42.17;;;17.25;;
74309;SDS011;62722;51.142;17.052;2022-12-17T11:49:44;54.63;;;18.05;;
74309;SDS011;62722;51.142;17.052;2022-12-17T11:52:39;46.17;;;17.35;;
74309;SDS011;62722;51.142;17.052;2022-12-17T11:55:35;51.85;;;16.65;;
74309;SDS011;62722;51.142;17.052;2022-12-17T11:58:26;56.13;;;17.30;;
74309;SDS011;62722;51.142;17.052;2022-12-17T12:01:18;65.82;;;20.15;;
74309;SDS011;62722;51.142;17.052;2022-12-17T12:04:11;55.95;;;18.88;;
74309;SDS011;62722;51.142;17.052;2022-12-17T12:07:10;54.30;;;17.75;;
74309;SDS011;62722;51.142;17.052;2022-12-17T12:10:02;50.20;;;15.50;;
74309;SDS011;62722;51.142;17.052;2022-12-17T12:12:53;52.88;;;16.08;;
74309;SDS011;62722;51.142;17.052;2022-12-17T12:15:50;28.52;;;11.75;;
74309;SDS011;62722;51.142;17.052;2022-12-17T12:18:45;50.65;;;15.95;;
74309;SDS011;62722;51.142;17.052;2022-12-17T12:21:40;55.83;;;16.67;;
74309;SDS011;62722;51.142;17.052;2022-12-17T12:24:38;52.25;;;16.48;;
74309;SDS011;62722;51.142;17.052;2022-12-17T12:27:35;54.22;;;17.27;;
74309;SDS011;62722;51.142;17.052;2022-12-17T12:30:31;66.45;;;17.45;;
74309;SDS011;62722;51.142;17.052;2022-12-17T12:33:23;48.38;;;14.85;;
74309;SDS011;62722;51.142;17.052;2022-12-17T12:36:15;52.95;;;15.45;;
74309;SDS011;62722;51.142;17.052;2022-12-17T12:39:02;57.88;;;17.75;;
74309;SDS011;62722;51.142;17.052;2022-12-17T12:41:57;56.72;;;16.17;;
74309;SDS011;62722;51.142;17.052;2022-12-17T12:44:47;53.17;;;16.15;;
74309;SDS011;62722;51.142;17.052;2022-12-17T12:47:43;53.28;;;16.85;;
74309;SDS011;62722;51.142;17.052;2022-12-17T12:50:37;51.50;;;15.93;;
74309;SDS011;62722;51.142;17.052;2022-12-17T12:53:32;65.18;;;18.27;;
74309;SDS011;62722;51.142;17.052;2022-12-17T12:56:26;47.03;;;16.48;;
74309;SDS011;62722;51.142;17.052;2022-12-17T12:59:20;39.28;;;13.18;;
74309;SDS011;62722;51.142;17.052;2022-12-17T13:02:13;50.67;;;14.18;;
74309;SDS011;62722;51.142;17.052;2022-12-17T13:05:20;59.38;;;17.83;;
74309;SDS011;62722;51.142;17.052;2022-12-17T13:08:01;50.28;;;14.88;;
74309;SDS011;62722;51.142;17.052;2022-12-17T13:10:30;49.00;;;15.65;;
74309;SDS011;62722;51.142;17.052;2022-12-17T13:12:59;47.47;;;14.55;;
74309;SDS011;62722;51.142;17.052;2022-12-17T13:15:39;56.33;;;15.57;;
74309;SDS011;62722;51.142;17.052;2022-12-17T13:18:14;46.58;;;14.38;;
74309;SDS011;62722;51.142;17.052;2022-12-17T13:20:56;47.95;;;15.57;;
74309;SDS011;62722;51.142;17.052;2022-12-17T13:23:26;46.90;;;17.02;;
74309;SDS011;62722;51.142;17.052;2022-12-17T13:26:09;53.50;;;15.73;;
74309;SDS011;62722;51.142;17.052;2022-12-17T13:28:40;49.22;;;15.35;;
74309;SDS011;62722;51.142;17.052;2022-12-17T13:31:13;38.17;;;13.50;;
74309;SDS011;62722;51.142;17.052;2022-12-17T13:33:45;47.08;;;14.18;;
74309;SDS011;62722;51.142;17.052;2022-12-17T13:36:22;40.38;;;13.82;;
74309;SDS011;62722;51.142;17.052;2022-12-17T13:38:56;52.60;;;14.98;;
74309;SDS011;62722;51.142;17.052;2022-12-17T13:41:30;45.40;;;13.30;;
74309;SDS011;62722;51.142;17.052;2022-12-17T13:44:00;38.15;;;12.75;;
74309;SDS011;62722;51.142;17.052;2022-12-17T13:46:33;44.65;;;13.88;;
74309;SDS011;62722;51.142;17.052;2022-12-17T13:49:13;50.30;;;14.20;;
74309;SDS011;62722;51.142;17.052;2022-12-17T13:51:45;55.35;;;16.67;;
74309;SDS011;62722;51.142;17.052;2022-12-17T13:54:13;49.85;;;15.52;;
74309;SDS011;62722;51.142;17.052;2022-12-17T13:56:45;46.75;;;14.45;;
74309;SDS011;62722;51.142;17.052;2022-12-17T13:59:16;39.13;;;11.48;;
74309;SDS011;62722;51.142;17.052;2022-12-17T14:01:47;53.00;;;14.57;;
74309;SDS011;62722;51.142;17.052;2022-12-17T14:04:19;44.17;;;13.05;;
74309;SDS011;62722;51.142;17.052;2022-12-17T14:06:49;44.38;;;15.60;;
74309;SDS011;62722;51.142;17.052;2022-12-17T14:09:19;47.30;;;14.40;;
74309;SDS011;62722;51.142;17.052;2022-12-17T14:11:49;44.63;;;13.63;;
74309;SDS011;62722;51.142;17.052;2022-12-17T14:14:34;41.25;;;13.23;;
74309;SDS011;62722;51.142;17.052;2022-12-17T14:17:03;37.13;;;12.25;;
74309;SDS011;62722;51.142;17.052;2022-12-17T14:19:30;47.05;;;14.70;;
74309;SDS011;62722;51.142;17.052;2022-12-17T14:22:00;40.33;;;12.02;;
74309;SDS011;62722;51.142;17.052;2022-12-17T14:24:27;43.13;;;13.48;;
74309;SDS011;62722;51.142;17.052;2022-12-17T14:26:56;39.40;;;12.32;;
74309;SDS011;62722;51.142;17.052;2022-12-17T14:29:25;45.10;;;15.02;;
74309;SDS011;62722;51.142;17.052;2022-12-17T14:31:54;49.08;;;13.60;;
74309;SDS011;62722;51.142;17.052;2022-12-17T14:34:23;41.42;;;11.43;;
74309;SDS011;62722;51.142;17.052;2022-12-17T14:36:54;44.35;;;14.02;;
74309;SDS011;62722;51.142;17.052;2022-12-17T14:39:26;38.17;;;12.88;;
74309;SDS011;62722;51.142;17.052;2022-12-17T14:41:55;44.78;;;13.90;;
74309;SDS011;62722;51.142;17.052;2022-12-17T14:44:47;47.50;;;14.13;;
74309;SDS011;62722;51.142;17.052;2022-12-17T14:47:18;40.75;;;12.45;;
74309;SDS011;62722;51.142;17.052;2022-12-17T14:52:50;49.20;;;14.38;;
74309;SDS011;62722;51.142;17.052;2022-12-17T14:55:28;42.50;;;12.82;;
74309;SDS011;62722;51.142;17.052;2022-12-17T14:58:08;29.20;;;9.27;;
74309;SDS011;62722;51.142;17.052;2022-12-17T15:00:41;46.58;;;14.43;;
74309;SDS011;62722;51.142;17.052;2022-12-17T15:03:11;48.50;;;13.20;;
74309;SDS011;62722;51.142;17.052;2022-12-17T15:05:44;39.60;;;14.25;;
74309;SDS011;62722;51.142;17.052;2022-12-17T15:08:16;41.88;;;12.07;;
74309;SDS011;62722;51.142;17.052;2022-12-17T15:10:44;32.83;;;10.73;;
74309;SDS011;62722;51.142;17.052;2022-12-17T15:13:12;32.08;;;10.02;;
74309;SDS011;62722;51.142;17.052;2022-12-17T15:15:39;28.73;;;9.68;;
74309;SDS011;62722;51.142;17.052;2022-12-17T15:18:07;36.90;;;11.63;;
74309;SDS011;62722;51.142;17.052;2022-12-17T15:20:37;34.55;;;11.35;;
74309;SDS011;62722;51.142;17.052;2022-12-17T15:23:04;41.17;;;10.50;;
74309;SDS011;62722;51.142;17.052;2022-12-17T15:25:32;32.38;;;9.48;;
74309;SDS011;62722;51.142;17.052;2022-12-17T15:28:00;38.50;;;11.07;;
74309;SDS011;62722;51.142;17.052;2022-12-17T15:30:28;41.92;;;14.70;;
74309;SDS011;62722;51.142;17.052;2022-12-17T15:32:55;26.88;;;10.63;;
74309;SDS011;62722;51.142;17.052;2022-12-17T15:35:22;41.55;;;13.73;;
74309;SDS011;62722;51.142;17.052;2022-12-17T15:37:50;40.65;;;10.68;;
74309;SDS011;62722;51.142;17.052;2022-12-17T15:40:17;44.22;;;16.58;;
74309;SDS011;62722;51.142;17.052;2022-12-17T15:42:44;37.75;;;12.98;;
74309;SDS011;62722;51.142;17.052;2022-12-17T15:45:29;34.97;;;10.50;;
74309;SDS011;62722;51.142;17.052;2022-12-17T15:47:57;33.97;;;11.15;;
74309;SDS011;62722;51.142;17.052;2022-12-17T15:50:24;29.98;;;9.80;;
74309;SDS011;62722;51.142;17.052;2022-12-17T15:52:53;27.40;;;7.93;;
74309;SDS011;62722;51.142;17.052;2022-12-17T15:55:20;33.03;;;9.88;;
74309;SDS011;62722;51.142;17.052;2022-12-17T15:57:47;26.75;;;8.55;;
74309;SDS011;62722;51.142;17.052;2022-12-17T16:00:14;32.47;;;10.20;;
74309;SDS011;62722;51.142;17.052;2022-12-17T16:02:44;32.63;;;12.00;;
74309;SDS011;62722;51.142;17.052;2022-12-17T16:05:12;35.72;;;10.73;;
74309;SDS011;62722;51.142;17.052;2022-12-17T16:07:40;30.98;;;9.77;;
74309;SDS011;62722;51.142;17.052;2022-12-17T16:10:08;47.10;;;12.32;;